Nathaniel B. Palmer — WBP3210 — position and weather

sailwx.info

Track history (hours):
 
Tides and Currents Weather Stations Pressure Air Temp Water Temp Dewpoint Dewpoint Depression Visibility Wind Speed Wind Dir Waves Ship Positions

Oceanographic research ship Nathaniel B. Palmer (USA)

Contact: Ethan Norris, ethan.norris.contractor@usap.gov

Detailed information on ship capabilities available from University of Delaware's Ocean Information Center and ARCUS's ALIAS (Arctic Logistics Information and Support) project.

Owner: OFFSHORE SERVICE VESSELS, GALLIANO, LA. More information available from US FCC via Universal Licensing System and Coast Guard Vessel Documentation Center.

Last reported at 2015-Jul-26 16:00 UTC. Time now 2015-Aug-01 22:17 UTC.
Position S 53°00' W 070°48'.

Type: Other ship. MMSI: 366610000.

Wind from 260 at 4 knots

Barometer 994.5 mb
Air temperature 5.5 ° C
Water temperature 11.9 ° C

Date/timePositionNaut miles runAvg speedWind from/ knotsBaromVisibWave heightAir tempDewpointWater temp
2015-Jul-26 16:00S 53°00' W 070°48'0 0.0 260 / 4994.5 5.5 11.9
2015-Jul-26 12:00S 53°00' W 070°48'0 0.0 010 / 5994.3 2.9 11.9
2015-Jul-26 10:00S 53°00' W 070°48'0 0.0 190 / 9994.2 2.8 11.9
2015-Jul-26 08:00S 53°00' W 070°48'0 0.0 270 / 2993.7 3.2 11.9
2015-Jul-26 04:00S 53°00' W 070°48'0 0.0 200 / 4993.7 4.6 11.9
2015-Jul-26 00:00S 53°00' W 070°48'0 0.0 090 / 6991.3 6.4 11.9
2015-Jul-25 22:00S 53°00' W 070°48'0 0.0 140 / 10989.7 6.6 11.9
2015-Jul-25 20:00S 53°00' W 070°48'0 0.0 180 / 3988.8 7.0 11.9
2015-Jul-25 18:00S 53°00' W 070°48'0 0.0 010 / 11987.9 7.1 11.9
2015-Jul-25 16:00S 53°00' W 070°48'0 0.0 140 / 11987.3 7.1 11.9
2015-Jul-25 14:00S 53°00' W 070°48'0 0.0 010 / 10987.9 6.2 11.9
2015-Jul-25 12:00S 53°00' W 070°48'0 0.0 330 / 6986.6 5.1 11.9
2015-Jul-25 10:00S 53°00' W 070°48'0 0.0 030 / 5985.6 4.5 11.9
2015-Jul-25 08:00S 53°00' W 070°48'0 0.0 170 / 2985.3 4.0 11.9
2015-Jul-25 04:00S 53°00' W 070°48'0 0.0 060 / 7985.5 3.4 11.9
2015-Jul-25 02:00S 53°00' W 070°48'0 0.0 260 / 5987.5 4.2 11.9
2015-Jul-25 00:00S 53°00' W 070°48'0 0.0 050 / 9990.0 4.3 11.9
2015-Jul-24 22:00S 53°00' W 070°48'0 0.0 320 / 12992.4 4.3 11.9
2015-Jul-24 20:00S 53°00' W 070°48'0 0.0 330 / 13994.9 4.4 11.9
2015-Jul-24 18:00S 53°00' W 070°48'0 0.0 280 / 16997.8 4.2 11.9
2015-Jul-24 16:00S 53°00' W 070°48'0 0.0 240 / 171000.7 4.0 11.9
2015-Jul-23 20:00S 53°00' W 070°48'0 0.0 050 / 51008.8 2.1 11.9
2015-Jul-23 18:00S 53°00' W 070°48'0 0.0 020 / 71007.4 3.1 11.9
2015-Jul-23 16:00S 53°00' W 070°48'0 0.0 040 / 101006.2 1.9 11.9
2015-Jul-23 14:00S 53°00' W 070°48'0 0.0 150 / 111003.3 0.8 11.9
2015-Jul-23 12:00S 53°00' W 070°48'0 0.0 020 / 131000.1 1.6 11.9
2015-Jul-23 10:00S 53°00' W 070°48'0 0.0 130 / 14996.5 2.4 11.9
2015-Jul-23 08:00S 53°00' W 070°48'0 0.0 120 / 20992.5 3.8 11.9
2015-Jul-23 02:00S 53°00' W 070°48'0 0.0 100 / 9984.3 4.0 11.9
2015-Jul-23 00:00S 53°00' W 070°48'0 0.0 300 / 5983.5 3.8 11.9
2015-Jul-22 22:00S 53°00' W 070°48'0 0.0 340 / 9985.4 4.2 11.9
2015-Jul-22 20:00S 53°00' W 070°48'0 0.0 280 / 4987.2 4.9 11.9
2015-Jul-22 18:00S 53°00' W 070°48'0 0.0 290 / 8989.7 6.2 11.9
2015-Jul-22 16:00S 53°00' W 070°48'0 0.0 180 / 12992.2 4.6 11.9
2015-Jul-22 14:00S 53°00' W 070°48'0 0.0 130 / 11993.1 4.2 11.9
2015-Jul-22 12:00S 53°00' W 070°48'0 0.0 310 / 8993.2 4.7 11.9
2015-Jul-22 10:00S 53°00' W 070°48'0 0.0 190 / 21991.1 5.1 11.9
2015-Jul-22 08:00S 53°00' W 070°48'0 0.0 170 / 28990.5 5.4 11.9
2015-Jul-22 04:00S 53°00' W 070°48'0 0.0 210 / 13995.2 4.0 11.9
2015-Jul-22 02:00S 53°00' W 070°48'0 0.0 270 / 16995.9 4.2 11.9
2015-Jul-22 00:00S 53°00' W 070°48'0 0.0 220 / 10996.4 4.6 11.9
2015-Jul-21 22:00S 53°00' W 070°48'0 0.0 250 / 6996.9 5.2 11.9
2015-Jul-21 20:00S 53°00' W 070°48'0 0.0 120 / 11995.3 6.1 11.9
2015-Jul-21 18:00S 53°00' W 070°48'0 0.0 190 / 13994.0 6.7 11.9
2015-Jul-21 16:00S 53°00' W 070°48'0 0.0 140 / 8992.6 5.9 11.9
2015-Jul-21 14:00S 53°00' W 070°48'0 0.0 250 / 4990.5 5.9 11.9
2015-Jul-21 12:00S 53°00' W 070°48'0 0.0 010 / 3989.0 5.0 11.9
2015-Jul-21 10:00S 53°00' W 070°48'0 0.0 270 / 6987.7 4.6 11.9
2015-Jul-21 08:00S 53°00' W 070°48'0 0.0 170 / 12986.3 5.3 11.9
2015-Jul-21 04:00S 53°00' W 070°48'0 0.0 180 / 9989.4 2.4 11.9
2015-Jul-21 02:00S 53°00' W 070°48'0 0.0 270 / 10991.8 2.4 11.9
2015-Jul-21 00:00S 53°00' W 070°48'0 0.0 330 / 8994.2 2.3 11.9
2015-Jul-20 18:00S 53°00' W 070°48'0 0.0 320 / 71002.3 4.9 11.9
2015-Jul-20 16:00S 53°00' W 070°48'0 0.0 260 / 61004.9 3.8 11.9
2015-Jul-20 14:00S 53°00' W 070°48'0 0.0 230 / 121007.0 3.6 11.9
2015-Jul-20 08:00S 53°00' W 070°48'0 0.0 150 / 131007.5 4.1 11.9
2015-Jul-20 04:00S 53°00' W 070°48'0 0.0 070 / 111005.7 4.7 11.9
2015-Jul-20 02:00S 53°00' W 070°48'0 0.0 090 / 121005.3 5.0 11.9
2015-Jul-20 00:00S 53°00' W 070°48'0 0.0 020 / 121003.6 4.6 11.9
2015-Jul-19 22:00S 53°00' W 070°48'0 0.0 130 / 151003.7 3.6 11.9
2015-Jul-19 18:00S 53°00' W 070°48'0 0.0 100 / 121003.1 2.6 11.9
2015-Jul-19 16:00S 53°00' W 070°48'11 7.6 070 / 181002.6 2.5 11.9
2015-Jul-19 14:33S 53°10' W 070°54'1119.4
2015-Jul-19 14:00S 53°00' W 070°48'0 0.0 120 / 221000.2 2.0 11.9
2015-Jul-19 10:00S 53°00' W 070°48'0 0.0 140 / 27991.1 2.6 11.9
2015-Jul-19 04:00S 53°00' W 070°48'0 0.0 130 / 31988.7 1.3 11.9
2015-Jul-19 02:00S 53°00' W 070°48'0 0.0 140 / 13991.2 0.8 11.9
2015-Jul-19 00:00S 53°00' W 070°48'0 0.0 210 / 5990.1 0.6 11.9
2015-Jul-18 22:00S 53°00' W 070°48'0 0.0 080 / 21985.4 1.7 11.9
2015-Jul-18 20:00S 53°00' W 070°48'0 0.0 120 / 19981.6 3.0 11.9
2015-Jul-18 18:00S 53°00' W 070°48'0 0.0 190 / 12979.1 2.7 11.9
2015-Jul-18 16:00S 53°00' W 070°48'0 0.0 160 / 30974.8 3.2 11.9
2015-Jul-18 14:00S 53°00' W 070°48'0 0.0 190 / 17974.8 2.6 11.9
2015-Jul-18 12:00S 53°00' W 070°48'0 0.0 260 / 18972.9 2.0 11.9
2015-Jul-18 08:00S 53°00' W 070°48'0 0.0 230 / 25972.1 2.2 11.9
2015-Jul-18 04:00S 53°00' W 070°48'0 0.0 140 / 29975.6 3.4 11.9
2015-Jul-18 02:00S 53°00' W 070°48'0 0.0 190 / 23977.8 2.5 11.9
2015-Jul-18 00:00S 53°00' W 070°48'0 0.0 310 / 9981.5 1.5 11.9
2015-Jul-17 22:00S 53°00' W 070°48'0 0.0 100 / 11982.6 1.2 11.9
2015-Jul-17 20:00S 53°00' W 070°48'0 0.0 190 / 19982.3 1.7 11.9
2015-Jul-17 18:00S 53°00' W 070°48'0 0.0 250 / 18982.0 2.4 11.9
2015-Jul-17 16:00S 53°00' W 070°48'0 0.0 120 / 21982.5 2.0 11.9
2015-Jul-17 14:00S 53°00' W 070°48'0 0.0 120 / 14981.6 1.1 11.9
2015-Jul-17 12:00S 53°00' W 070°48'0 0.0 150 / 12980.1 1.5 11.9
2015-Jul-17 10:00S 53°00' W 070°48'0 0.0 160 / 14977.5 2.2 11.9
2015-Jul-17 08:00S 53°00' W 070°48'0 0.0 140 / 21973.4 4.1 11.9
2015-Jul-17 04:00S 53°00' W 070°48'0 0.0 290 / 7975.8 3.1 11.9
2015-Jul-17 02:00S 53°00' W 070°48'0 0.0 290 / 10978.3 3.3 11.9
2015-Jul-17 00:00S 53°00' W 070°48'0 0.0 170 / 17981.6 3.9 11.9
2015-Jul-16 22:00S 53°00' W 070°48'0 0.0 200 / 8985.9 3.1 11.9
2015-Jul-16 20:00S 53°00' W 070°48'0 0.0 210 / 15988.2 4.2 11.9
2015-Jul-16 18:00S 53°00' W 070°48'0 0.0 360 / 6990.7 4.1 11.9
2015-Jul-16 16:00S 53°00' W 070°48'   310 / 15993.1 4.2 11.9
Track history (hours):
 
Tides and Currents Weather Stations Pressure Air Temp Water Temp Dewpoint Dewpoint Depression Visibility Wind Speed Wind Dir Waves Ship Positions

Oceanographic research ship Nathaniel B. Palmer (USA)

Contact: Ethan Norris, ethan.norris.contractor@usap.gov

Detailed information on ship capabilities available from University of Delaware's Ocean Information Center and ARCUS's ALIAS (Arctic Logistics Information and Support) project.

Owner: OFFSHORE SERVICE VESSELS, GALLIANO, LA. More information available from US FCC via Universal Licensing System and Coast Guard Vessel Documentation Center.

Last reported at 2015-Jul-26 16:00 UTC. Time now 2015-Aug-01 22:17 UTC.
Position S 53°00' W 070°48'.

Type: Other ship. MMSI: 366610000.

Wind from 260 at 4 knots

Barometer 994.5 mb
Air temperature 5.5 ° C
Water temperature 11.9 ° C

Date/timePositionNaut miles runAvg speedWind from/ knotsBaromVisibWave heightAir tempDewpointWater temp
2015-Jul-26 16:00S 53°00' W 070°48'0 0.0 260 / 4994.5 5.5 11.9
2015-Jul-26 12:00S 53°00' W 070°48'0 0.0 010 / 5994.3 2.9 11.9
2015-Jul-26 10:00S 53°00' W 070°48'0 0.0 190 / 9994.2 2.8 11.9
2015-Jul-26 08:00S 53°00' W 070°48'0 0.0 270 / 2993.7 3.2 11.9
2015-Jul-26 04:00S 53°00' W 070°48'0 0.0 200 / 4993.7 4.6 11.9
2015-Jul-26 00:00S 53°00' W 070°48'0 0.0 090 / 6991.3 6.4 11.9
2015-Jul-25 22:00S 53°00' W 070°48'0 0.0 140 / 10989.7 6.6 11.9
2015-Jul-25 20:00S 53°00' W 070°48'0 0.0 180 / 3988.8 7.0 11.9
2015-Jul-25 18:00S 53°00' W 070°48'0 0.0 010 / 11987.9 7.1 11.9
2015-Jul-25 16:00S 53°00' W 070°48'0 0.0 140 / 11987.3 7.1 11.9
2015-Jul-25 14:00S 53°00' W 070°48'0 0.0 010 / 10987.9 6.2 11.9
2015-Jul-25 12:00S 53°00' W 070°48'0 0.0 330 / 6986.6 5.1 11.9
2015-Jul-25 10:00S 53°00' W 070°48'0 0.0 030 / 5985.6 4.5 11.9
2015-Jul-25 08:00S 53°00' W 070°48'0 0.0 170 / 2985.3 4.0 11.9
2015-Jul-25 04:00S 53°00' W 070°48'0 0.0 060 / 7985.5 3.4 11.9
2015-Jul-25 02:00S 53°00' W 070°48'0 0.0 260 / 5987.5 4.2 11.9
2015-Jul-25 00:00S 53°00' W 070°48'0 0.0 050 / 9990.0 4.3 11.9
2015-Jul-24 22:00S 53°00' W 070°48'0 0.0 320 / 12992.4 4.3 11.9
2015-Jul-24 20:00S 53°00' W 070°48'0 0.0 330 / 13994.9 4.4 11.9
2015-Jul-24 18:00S 53°00' W 070°48'0 0.0 280 / 16997.8 4.2 11.9
2015-Jul-24 16:00S 53°00' W 070°48'0 0.0 240 / 171000.7 4.0 11.9
2015-Jul-23 20:00S 53°00' W 070°48'0 0.0 050 / 51008.8 2.1 11.9
2015-Jul-23 18:00S 53°00' W 070°48'0 0.0 020 / 71007.4 3.1 11.9
2015-Jul-23 16:00S 53°00' W 070°48'0 0.0 040 / 101006.2 1.9 11.9
2015-Jul-23 14:00S 53°00' W 070°48'0 0.0 150 / 111003.3 0.8 11.9
2015-Jul-23 12:00S 53°00' W 070°48'0 0.0 020 / 131000.1 1.6 11.9
2015-Jul-23 10:00S 53°00' W 070°48'0 0.0 130 / 14996.5 2.4 11.9
2015-Jul-23 08:00S 53°00' W 070°48'0 0.0 120 / 20992.5 3.8 11.9
2015-Jul-23 02:00S 53°00' W 070°48'0 0.0 100 / 9984.3 4.0 11.9
2015-Jul-23 00:00S 53°00' W 070°48'0 0.0 300 / 5983.5 3.8 11.9
2015-Jul-22 22:00S 53°00' W 070°48'0 0.0 340 / 9985.4 4.2 11.9
2015-Jul-22 20:00S 53°00' W 070°48'0 0.0 280 / 4987.2 4.9 11.9
2015-Jul-22 18:00S 53°00' W 070°48'0 0.0 290 / 8989.7 6.2 11.9
2015-Jul-22 16:00S 53°00' W 070°48'0 0.0 180 / 12992.2 4.6 11.9
2015-Jul-22 14:00S 53°00' W 070°48'0 0.0 130 / 11993.1 4.2 11.9
2015-Jul-22 12:00S 53°00' W 070°48'0 0.0 310 / 8993.2 4.7 11.9
2015-Jul-22 10:00S 53°00' W 070°48'0 0.0 190 / 21991.1 5.1 11.9
2015-Jul-22 08:00S 53°00' W 070°48'0 0.0 170 / 28990.5 5.4 11.9
2015-Jul-22 04:00S 53°00' W 070°48'0 0.0 210 / 13995.2 4.0 11.9
2015-Jul-22 02:00S 53°00' W 070°48'0 0.0 270 / 16995.9 4.2 11.9
2015-Jul-22 00:00S 53°00' W 070°48'0 0.0 220 / 10996.4 4.6 11.9
2015-Jul-21 22:00S 53°00' W 070°48'0 0.0 250 / 6996.9 5.2 11.9
2015-Jul-21 20:00S 53°00' W 070°48'0 0.0 120 / 11995.3 6.1 11.9
2015-Jul-21 18:00S 53°00' W 070°48'0 0.0 190 / 13994.0 6.7 11.9
2015-Jul-21 16:00S 53°00' W 070°48'0 0.0 140 / 8992.6 5.9 11.9
2015-Jul-21 14:00S 53°00' W 070°48'0 0.0 250 / 4990.5 5.9 11.9
2015-Jul-21 12:00S 53°00' W 070°48'0 0.0 010 / 3989.0 5.0 11.9
2015-Jul-21 10:00S 53°00' W 070°48'0 0.0 270 / 6987.7 4.6 11.9
2015-Jul-21 08:00S 53°00' W 070°48'0 0.0 170 / 12986.3 5.3 11.9
2015-Jul-21 04:00S 53°00' W 070°48'0 0.0 180 / 9989.4 2.4 11.9
2015-Jul-21 02:00S 53°00' W 070°48'0 0.0 270 / 10991.8 2.4 11.9
2015-Jul-21 00:00S 53°00' W 070°48'0 0.0 330 / 8994.2 2.3 11.9
2015-Jul-20 18:00S 53°00' W 070°48'0 0.0 320 / 71002.3 4.9 11.9
2015-Jul-20 16:00S 53°00' W 070°48'0 0.0 260 / 61004.9 3.8 11.9
2015-Jul-20 14:00S 53°00' W 070°48'0 0.0 230 / 121007.0 3.6 11.9
2015-Jul-20 08:00S 53°00' W 070°48'0 0.0 150 / 131007.5 4.1 11.9
2015-Jul-20 04:00S 53°00' W 070°48'0 0.0 070 / 111005.7 4.7 11.9
2015-Jul-20 02:00S 53°00' W 070°48'0 0.0 090 / 121005.3 5.0 11.9
2015-Jul-20 00:00S 53°00' W 070°48'0 0.0 020 / 121003.6 4.6 11.9
2015-Jul-19 22:00S 53°00' W 070°48'0 0.0 130 / 151003.7 3.6 11.9
2015-Jul-19 18:00S 53°00' W 070°48'0 0.0 100 / 121003.1 2.6 11.9
2015-Jul-19 16:00S 53°00' W 070°48'11 7.6 070 / 181002.6 2.5 11.9
2015-Jul-19 14:33S 53°10' W 070°54'1119.4
2015-Jul-19 14:00S 53°00' W 070°48'0 0.0 120 / 221000.2 2.0 11.9
2015-Jul-19 10:00S 53°00' W 070°48'0 0.0 140 / 27991.1 2.6 11.9
2015-Jul-19 04:00S 53°00' W 070°48'0 0.0 130 / 31988.7 1.3 11.9
2015-Jul-19 02:00S 53°00' W 070°48'0 0.0 140 / 13991.2 0.8 11.9
2015-Jul-19 00:00S 53°00' W 070°48'0 0.0 210 / 5990.1 0.6 11.9
2015-Jul-18 22:00S 53°00' W 070°48'0 0.0 080 / 21985.4 1.7 11.9
2015-Jul-18 20:00S 53°00' W 070°48'0 0.0 120 / 19981.6 3.0 11.9
2015-Jul-18 18:00S 53°00' W 070°48'0 0.0 190 / 12979.1 2.7 11.9
2015-Jul-18 16:00S 53°00' W 070°48'0 0.0 160 / 30974.8 3.2 11.9
2015-Jul-18 14:00S 53°00' W 070°48'0 0.0 190 / 17974.8 2.6 11.9
2015-Jul-18 12:00S 53°00' W 070°48'0 0.0 260 / 18972.9 2.0 11.9
2015-Jul-18 08:00S 53°00' W 070°48'0 0.0 230 / 25972.1 2.2 11.9
2015-Jul-18 04:00S 53°00' W 070°48'0 0.0 140 / 29975.6 3.4 11.9
2015-Jul-18 02:00S 53°00' W 070°48'0 0.0 190 / 23977.8 2.5 11.9
2015-Jul-18 00:00S 53°00' W 070°48'0 0.0 310 / 9981.5 1.5 11.9
2015-Jul-17 22:00S 53°00' W 070°48'0 0.0 100 / 11982.6 1.2 11.9
2015-Jul-17 20:00S 53°00' W 070°48'0 0.0 190 / 19982.3 1.7 11.9
2015-Jul-17 18:00S 53°00' W 070°48'0 0.0 250 / 18982.0 2.4 11.9
2015-Jul-17 16:00S 53°00' W 070°48'0 0.0 120 / 21982.5 2.0 11.9
2015-Jul-17 14:00S 53°00' W 070°48'0 0.0 120 / 14981.6 1.1 11.9
2015-Jul-17 12:00S 53°00' W 070°48'0 0.0 150 / 12980.1 1.5 11.9
2015-Jul-17 10:00S 53°00' W 070°48'0 0.0 160 / 14977.5 2.2 11.9
2015-Jul-17 08:00S 53°00' W 070°48'0 0.0 140 / 21973.4 4.1 11.9
2015-Jul-17 04:00S 53°00' W 070°48'0 0.0 290 / 7975.8 3.1 11.9
2015-Jul-17 02:00S 53°00' W 070°48'0 0.0 290 / 10978.3 3.3 11.9
2015-Jul-17 00:00S 53°00' W 070°48'0 0.0 170 / 17981.6 3.9 11.9
2015-Jul-16 22:00S 53°00' W 070°48'0 0.0 200 / 8985.9 3.1 11.9
2015-Jul-16 20:00S 53°00' W 070°48'0 0.0 210 / 15988.2 4.2 11.9
2015-Jul-16 18:00S 53°00' W 070°48'0 0.0 360 / 6990.7 4.1 11.9
2015-Jul-16 16:00S 53°00' W 070°48'   310 / 15993.1 4.2 11.9

Dump ship's entire track history